createdAt,value
2023-11-15T00:00:37.270Z,8.95
2023-11-15T00:03:05.060Z,9.03
2023-11-15T00:05:34.565Z,8.98
2023-11-15T00:08:01.617Z,8.96
2023-11-15T00:10:29.099Z,8.96
2023-11-15T00:12:56.134Z,8.89
2023-11-15T00:15:23.360Z,8.84
2023-11-15T00:17:50.609Z,8.74
2023-11-15T00:20:17.919Z,8.68
2023-11-15T00:22:45.147Z,8.62
2023-11-15T00:25:12.681Z,8.62
2023-11-15T00:27:40.716Z,8.68
2023-11-15T00:30:12.200Z,8.68
2023-11-15T00:32:39.448Z,8.65
2023-11-15T00:35:08.384Z,8.68
2023-11-15T00:37:36.929Z,8.67
2023-11-15T00:40:05.628Z,8.63
2023-11-15T00:42:32.810Z,8.60
2023-11-15T00:44:59.910Z,8.65
2023-11-15T00:47:27.998Z,8.84
2023-11-15T00:49:55.081Z,8.84
2023-11-15T00:52:22.116Z,8.78
2023-11-15T00:54:49.157Z,8.84
2023-11-15T00:57:16.292Z,8.90
2023-11-15T00:59:48.896Z,8.79
2023-11-15T01:02:18.260Z,8.66
2023-11-15T01:04:45.338Z,8.54
2023-11-15T01:07:12.350Z,8.47
2023-11-15T01:09:39.468Z,8.41
2023-11-15T01:12:06.989Z,8.32
2023-11-15T01:14:35.007Z,8.20
2023-11-15T01:17:02.277Z,8.12
2023-11-15T01:19:30.577Z,8.12
2023-11-15T01:21:59.327Z,8.08
2023-11-15T01:24:27.447Z,8.07
2023-11-15T01:26:54.582Z,8.01
2023-11-15T01:29:21.691Z,7.92
2023-11-15T01:31:48.847Z,7.90
2023-11-15T01:34:18.468Z,7.94
2023-11-15T01:36:48.511Z,7.94
2023-11-15T01:39:18.666Z,7.93
2023-11-15T01:41:50.187Z,7.95
2023-11-15T01:44:19.519Z,7.97
2023-11-15T01:46:51.558Z,8.05
2023-11-15T01:49:22.349Z,8.05
2023-11-15T01:51:52.479Z,7.97
2023-11-15T01:54:21.593Z,7.96
2023-11-15T01:56:49.122Z,8.00
2023-11-15T01:59:17.269Z,8.09
2023-11-15T02:01:44.478Z,8.15
2023-11-15T02:04:11.656Z,8.21
2023-11-15T02:06:38.912Z,8.28
2023-11-15T02:09:11.784Z,8.49
2023-11-15T02:11:40.346Z,8.59
2023-11-15T02:14:07.502Z,8.59
2023-11-15T02:16:34.740Z,8.64
2023-11-15T02:19:01.888Z,8.73
2023-11-15T02:21:28.969Z,8.84
2023-11-15T02:23:56.875Z,8.92
2023-11-15T02:26:23.950Z,8.99
2023-11-15T02:28:51.672Z,9.04
2023-11-15T02:31:18.816Z,9.09
2023-11-15T02:33:46.538Z,9.11
2023-11-15T02:36:14.022Z,9.16
2023-11-15T02:38:41.592Z,9.16
2023-11-15T02:41:10.970Z,9.11
2023-11-15T02:43:38.526Z,9.21
2023-11-15T02:46:05.736Z,9.24
2023-11-15T02:48:33.852Z,9.24
2023-11-15T02:51:01.219Z,9.22
2023-11-15T02:53:28.400Z,9.21
2023-11-15T02:55:55.540Z,9.20
2023-11-15T02:58:22.589Z,9.18
2023-11-15T03:00:49.793Z,9.18
2023-11-15T03:03:20.162Z,9.20
2023-11-15T03:05:47.902Z,9.16
2023-11-15T03:08:17.480Z,9.10
2023-11-15T03:10:45.845Z,9.03
2023-11-15T03:13:13.391Z,9.00
2023-11-15T03:15:40.512Z,8.99
2023-11-15T03:18:08.873Z,8.97
2023-11-15T03:20:36.395Z,9.01
2023-11-15T03:23:03.462Z,9.01
2023-11-15T03:25:30.566Z,8.97
2023-11-15T03:27:58.200Z,8.96
2023-11-15T03:30:27.543Z,8.95
2023-11-15T03:32:56.716Z,8.97
2023-11-15T03:35:24.234Z,8.99
2023-11-15T03:37:53.490Z,9.01
2023-11-15T03:40:23.664Z,9.03
2023-11-15T03:42:52.116Z,9.05
2023-11-15T03:45:19.216Z,9.08
2023-11-15T03:47:50.230Z,9.10
2023-11-15T03:50:17.536Z,9.09
2023-11-15T03:52:44.637Z,9.10
2023-11-15T03:55:11.807Z,9.10
2023-11-15T03:57:38.874Z,9.11
2023-11-15T04:00:07.818Z,9.13
2023-11-15T04:02:35.008Z,9.11
2023-11-15T04:05:02.236Z,9.21
2023-11-15T04:07:31.890Z,9.21
2023-11-15T04:10:00.984Z,9.17
2023-11-15T04:12:28.123Z,9.25
2023-11-15T04:15:08.169Z,9.25
2023-11-15T04:17:37.990Z,9.20
2023-11-15T04:20:13.060Z,9.18
2023-11-15T04:22:40.126Z,9.18
2023-11-15T04:25:07.641Z,9.19
2023-11-15T04:27:34.729Z,9.18
2023-11-15T04:30:02.252Z,9.16
2023-11-15T04:32:29.374Z,9.16
2023-11-15T04:34:56.499Z,9.16
2023-11-15T04:37:23.613Z,9.11
2023-11-15T04:39:50.706Z,9.08
2023-11-15T04:42:20.457Z,9.08
2023-11-15T04:44:47.820Z,9.03
2023-11-15T04:47:15.083Z,9.04
2023-11-15T04:49:42.463Z,9.04
2023-11-15T04:52:09.659Z,9.02
2023-11-15T04:54:36.704Z,8.95
2023-11-15T04:57:04.965Z,8.92
2023-11-15T04:59:45.504Z,8.81
2023-11-15T05:02:13.704Z,8.75
2023-11-15T05:04:41.219Z,8.69
2023-11-15T05:07:09.216Z,8.69
2023-11-15T05:09:43.365Z,8.64
2023-11-15T05:12:10.543Z,8.62
2023-11-15T05:14:38.327Z,8.63
2023-11-15T05:17:05.769Z,8.63
2023-11-15T05:19:32.843Z,8.61
2023-11-15T05:22:00.439Z,8.54
2023-11-15T05:24:35.174Z,8.50
2023-11-15T05:27:02.465Z,8.57
2023-11-15T05:29:31.648Z,8.57
2023-11-15T05:31:59.138Z,8.56
2023-11-15T05:34:28.849Z,8.55
2023-11-15T05:36:55.955Z,8.59
2023-11-15T05:39:29.438Z,8.60
2023-11-15T05:41:56.614Z,8.60
2023-11-15T05:44:24.867Z,8.59
2023-11-15T05:46:52.065Z,8.56
2023-11-15T05:49:19.302Z,8.54
2023-11-15T05:51:47.280Z,8.53
2023-11-15T05:54:19.111Z,8.53
2023-11-15T05:56:50.168Z,8.42
2023-11-15T05:59:17.829Z,8.35
2023-11-15T06:01:45.437Z,8.28
2023-11-15T06:04:13.447Z,8.22
2023-11-15T06:06:40.532Z,8.21
2023-11-15T06:09:07.589Z,8.18
2023-11-15T06:11:35.082Z,8.11
2023-11-15T06:14:02.107Z,8.09
2023-11-15T06:16:32.949Z,8.04
2023-11-15T06:19:00.007Z,7.99
2023-11-15T06:21:31.653Z,7.96
2023-11-15T06:23:58.705Z,7.95
2023-11-15T06:26:25.941Z,7.95
2023-11-15T06:28:55.235Z,7.99
2023-11-15T06:31:22.883Z,8.02
2023-11-15T06:33:57.627Z,8.03
2023-11-15T06:36:25.097Z,8.07
2023-11-15T06:38:52.302Z,8.11
2023-11-15T06:41:20.341Z,8.12
2023-11-15T06:43:49.012Z,8.23
2023-11-15T06:46:22.233Z,8.23
2023-11-15T06:48:57.515Z,8.21
2023-11-15T06:51:52.683Z,8.26
2023-11-15T06:54:21.103Z,8.33
2023-11-15T06:56:51.171Z,8.33
2023-11-15T06:59:19.303Z,8.25
2023-11-15T07:01:49.674Z,8.18
2023-11-15T07:04:19.013Z,8.18
2023-11-15T07:09:47.355Z,8.07
2023-11-15T07:12:18.828Z,8.01
2023-11-15T07:14:47.215Z,7.96
2023-11-15T07:17:16.379Z,7.96
2023-11-15T07:19:43.418Z,7.90
2023-11-15T07:22:10.809Z,7.94
2023-11-15T07:24:42.284Z,7.92
2023-11-15T07:27:10.454Z,7.95
2023-11-15T07:29:39.289Z,7.95
2023-11-15T07:32:09.138Z,8.00
2023-11-15T07:34:37.725Z,8.00
2023-11-15T07:37:05.620Z,8.01
2023-11-15T07:39:32.740Z,8.06
2023-11-15T07:42:00.962Z,8.21
2023-11-15T07:44:32.221Z,8.60
2023-11-15T07:47:00.843Z,8.90
2023-11-15T07:49:30.357Z,9.08
2023-11-15T07:52:18.342Z,9.08
2023-11-15T07:54:45.838Z,9.21
2023-11-15T07:57:23.102Z,9.27
2023-11-15T07:59:50.197Z,9.37
2023-11-15T08:02:18.748Z,9.37
2023-11-15T08:04:46.194Z,9.78
2023-11-15T08:07:13.320Z,10.40
2023-11-15T08:09:44.138Z,11.34
2023-11-15T08:12:11.306Z,12.04
2023-11-15T08:14:38.639Z,13.04
2023-11-15T08:17:05.875Z,13.78
2023-11-15T08:19:32.971Z,14.11
2023-11-15T08:21:59.963Z,14.40
2023-11-15T08:24:31.092Z,14.48
2023-11-15T08:26:59.747Z,14.20
2023-11-15T08:29:26.918Z,14.20
2023-11-15T08:31:54.084Z,13.31
2023-11-15T08:34:23.937Z,13.20
2023-11-15T08:36:58.483Z,12.72
2023-11-15T08:39:25.755Z,12.30
2023-11-15T08:41:54.256Z,12.22
2023-11-15T08:44:21.347Z,12.38
2023-11-15T08:46:49.589Z,12.74
2023-11-15T08:49:17.644Z,13.07
2023-11-15T08:52:03.152Z,13.10
2023-11-15T08:54:32.757Z,13.14
2023-11-15T08:56:59.795Z,13.14
2023-11-15T08:59:31.739Z,12.87
2023-11-15T09:02:02.672Z,12.30
2023-11-15T09:04:37.958Z,11.90
2023-11-15T09:07:20.123Z,11.54
2023-11-15T09:09:48.908Z,11.17
2023-11-15T09:12:24.976Z,10.73
2023-11-15T09:14:54.294Z,10.60
2023-11-15T09:17:22.524Z,10.58
2023-11-15T09:19:51.228Z,10.87
2023-11-15T09:22:19.756Z,11.34
2023-11-15T09:24:49.416Z,12.07
2023-11-15T09:27:18.480Z,12.40
2023-11-15T09:29:47.693Z,12.37
2023-11-15T09:32:15.205Z,12.28
2023-11-15T09:34:43.376Z,12.13
2023-11-15T09:37:11.352Z,11.89
2023-11-15T09:39:42.862Z,11.66
2023-11-15T09:42:12.305Z,11.58
2023-11-15T09:44:45.534Z,11.87
2023-11-15T09:47:15.472Z,11.87
2023-11-15T09:49:56.467Z,12.22
2023-11-15T09:55:03.611Z,11.83
2023-11-15T09:57:30.847Z,11.50
2023-11-15T10:00:05.518Z,11.11
2023-11-15T10:02:42.267Z,10.88
2023-11-15T10:05:20.162Z,10.57
2023-11-15T10:07:53.798Z,10.53
2023-11-15T10:10:26.090Z,10.60
2023-11-15T10:12:56.354Z,10.73
2023-11-15T10:15:35.560Z,10.70
2023-11-15T10:18:02.755Z,10.82
2023-11-15T10:20:30.118Z,10.87
2023-11-15T10:22:59.079Z,10.95
2023-11-15T10:25:28.817Z,10.98
2023-11-15T10:28:11.428Z,11.14
2023-11-15T10:30:41.712Z,11.23
2023-11-15T10:33:12.367Z,11.23
2023-11-15T10:35:40.320Z,11.15
2023-11-15T10:38:16.415Z,11.03
2023-11-15T10:40:45.301Z,10.89
2023-11-15T10:43:17.940Z,10.80
2023-11-15T10:45:49.268Z,10.87
2023-11-15T10:48:23.541Z,10.90
2023-11-15T10:50:59.903Z,10.90
2023-11-15T10:53:30.033Z,10.81
2023-11-15T10:56:00.451Z,10.87
2023-11-15T10:58:31.601Z,10.93
2023-11-15T11:00:59.749Z,11.01
2023-11-15T11:03:29.925Z,11.13
2023-11-15T11:06:41.192Z,11.26
2023-11-15T11:09:27.408Z,11.47
2023-11-15T11:12:07.400Z,11.72
2023-11-15T11:14:38.149Z,11.74
2023-11-15T11:17:39.115Z,11.67
2023-11-15T11:20:26.843Z,11.81
2023-11-15T11:23:18.586Z,12.25
2023-11-15T11:25:48.727Z,12.41
2023-11-15T11:28:19.996Z,12.59
2023-11-15T11:31:19.579Z,12.58
2023-11-15T11:34:16.347Z,12.41
2023-11-15T11:37:00.160Z,12.19
2023-11-15T11:39:45.815Z,12.06
2023-11-15T11:42:28.918Z,12.09
2023-11-15T11:44:56.744Z,12.12
2023-11-15T11:47:24.849Z,12.36
2023-11-15T11:49:53.848Z,12.80
2023-11-15T11:52:21.403Z,13.24
2023-11-15T11:54:53.393Z,13.29
2023-11-15T11:57:23.193Z,12.97
2023-11-15T12:00:23.561Z,12.65
2023-11-15T12:03:01.216Z,12.49
2023-11-15T12:05:35.933Z,12.69
2023-11-15T12:08:04.543Z,12.82
2023-11-15T12:10:31.835Z,12.80
2023-11-15T12:13:03.000Z,12.76
2023-11-15T12:15:30.505Z,12.75
2023-11-15T12:18:01.777Z,12.66
2023-11-15T12:20:40.148Z,12.95
2023-11-15T12:23:11.920Z,12.75
2023-11-15T12:25:54.617Z,12.56
2023-11-15T12:28:40.878Z,12.38
2023-11-15T12:31:10.027Z,12.52
2023-11-15T12:33:37.710Z,12.46
2023-11-15T12:36:08.352Z,12.46
2023-11-15T12:38:35.949Z,12.46
2023-11-15T12:41:07.736Z,12.26
2023-11-15T12:43:35.424Z,12.01
2023-11-15T12:46:19.844Z,11.84
2023-11-15T12:48:49.384Z,11.84
2023-11-15T12:51:16.941Z,11.76
2023-11-15T12:53:44.273Z,11.78
2023-11-15T12:56:20.838Z,11.70
2023-11-15T12:58:49.696Z,11.70
2023-11-15T13:01:20.096Z,11.67
2023-11-15T13:03:57.113Z,11.60
2023-11-15T13:06:29.270Z,11.82
2023-11-15T13:08:59.493Z,11.87
2023-11-15T13:11:26.561Z,11.87
2023-11-15T13:13:55.476Z,11.87
2023-11-15T13:16:25.651Z,11.82
2023-11-15T13:18:52.884Z,11.62
2023-11-15T13:21:25.208Z,11.47
2023-11-15T13:23:53.839Z,11.07
2023-11-15T13:26:22.502Z,11.02
2023-11-15T13:28:50.892Z,11.17
2023-11-15T13:31:25.704Z,11.20
2023-11-15T13:33:57.403Z,11.33
2023-11-15T13:36:27.043Z,11.33
2023-11-15T13:38:54.427Z,11.06
2023-11-15T13:41:25.119Z,10.92
2023-11-15T13:43:54.509Z,10.92
2023-11-15T13:46:24.748Z,10.80
2023-11-15T13:48:54.183Z,10.82
2023-11-15T13:51:23.930Z,10.84
2023-11-15T13:53:51.420Z,10.84
2023-11-15T13:56:18.810Z,10.80
2023-11-15T13:58:45.855Z,10.80
2023-11-15T14:01:13.121Z,10.76
2023-11-15T14:03:40.977Z,10.72
2023-11-15T14:06:08.861Z,10.70
2023-11-15T14:08:47.333Z,10.74
2023-11-15T14:11:23.851Z,10.71
2023-11-15T14:13:51.037Z,10.65
2023-11-15T14:16:18.100Z,10.69
2023-11-15T14:18:49.080Z,10.66
2023-11-15T14:21:16.525Z,10.59
2023-11-15T14:23:43.688Z,10.48
2023-11-15T14:26:11.162Z,10.40
2023-11-15T14:28:38.228Z,10.32
2023-11-15T14:31:05.698Z,10.23
2023-11-15T14:33:33.232Z,10.24
2023-11-15T14:36:00.670Z,10.27
2023-11-15T14:38:28.013Z,10.27
2023-11-15T14:40:57.028Z,10.29
2023-11-15T14:43:24.340Z,10.41
2023-11-15T14:45:51.873Z,10.47
2023-11-15T14:48:19.452Z,10.52
2023-11-15T14:50:47.491Z,10.53
2023-11-15T14:53:31.424Z,10.56
2023-11-15T14:55:59.875Z,10.57
2023-11-15T14:58:27.609Z,10.53
2023-11-15T15:00:55.350Z,10.46
2023-11-15T15:03:24.279Z,10.39
2023-11-15T15:05:53.185Z,10.31
2023-11-15T15:08:23.178Z,10.23
2023-11-15T15:10:56.267Z,10.12
2023-11-15T15:13:23.432Z,10.03
2023-11-15T15:15:50.747Z,9.93
2023-11-15T15:18:22.278Z,9.89
2023-11-15T15:20:56.797Z,9.82
2023-11-15T15:23:23.873Z,9.69
2023-11-15T15:25:51.057Z,9.61
2023-11-15T15:28:18.327Z,9.53
2023-11-15T15:30:45.518Z,9.43
2023-11-15T15:33:12.629Z,9.35
2023-11-15T15:35:39.825Z,9.27
2023-11-15T15:38:09.575Z,9.22
2023-11-15T15:40:40.173Z,9.18
2023-11-15T15:43:07.426Z,9.13
2023-11-15T15:45:34.442Z,9.07
2023-11-15T15:48:01.848Z,9.00
2023-11-15T15:50:29.022Z,8.92
2023-11-15T15:52:56.687Z,8.90
2023-11-15T15:55:24.085Z,8.86
2023-11-15T15:57:51.311Z,8.81
2023-11-15T16:00:19.472Z,8.83
2023-11-15T16:02:48.246Z,8.81
2023-11-15T16:05:17.823Z,8.85
2023-11-15T16:07:48.141Z,8.89
2023-11-15T16:10:15.701Z,8.92
2023-11-15T16:12:42.736Z,8.90
2023-11-15T16:15:18.186Z,8.86
2023-11-15T16:17:46.040Z,8.85
2023-11-15T16:20:13.658Z,8.88
2023-11-15T16:22:41.141Z,8.92
2023-11-15T16:25:08.681Z,8.99
2023-11-15T16:27:37.871Z,9.03
2023-11-15T16:30:11.092Z,9.07
2023-11-15T16:32:38.362Z,9.07
2023-11-15T16:35:09.702Z,9.11
2023-11-15T16:37:40.057Z,9.11
2023-11-15T16:40:11.847Z,9.09
2023-11-15T16:42:40.570Z,9.12
2023-11-15T16:45:09.403Z,9.08
2023-11-15T16:47:37.490Z,9.05
2023-11-15T16:50:05.531Z,8.99
2023-11-15T16:52:34.651Z,8.92
2023-11-15T16:55:07.168Z,8.87
2023-11-15T16:57:34.503Z,8.82
2023-11-15T17:00:01.832Z,8.79
2023-11-15T17:02:29.396Z,8.79
2023-11-15T17:04:56.614Z,8.81
2023-11-15T17:07:23.885Z,8.84
2023-11-15T17:09:53.103Z,8.87
2023-11-15T17:12:20.458Z,8.92
2023-11-15T17:14:47.782Z,8.93
2023-11-15T17:17:17.237Z,8.94
2023-11-15T17:19:45.775Z,8.98
2023-11-15T17:22:14.630Z,9.00
2023-11-15T17:24:41.821Z,9.02
2023-11-15T17:27:10.122Z,9.04
2023-11-15T17:29:37.666Z,9.05
2023-11-15T17:32:06.620Z,9.03
2023-11-15T17:34:34.069Z,8.95
2023-11-15T17:37:02.119Z,8.81
2023-11-15T17:39:30.436Z,8.71
2023-11-15T17:41:57.874Z,8.58
2023-11-15T17:44:25.276Z,8.49
2023-11-15T17:46:53.871Z,8.42
2023-11-15T17:49:21.867Z,8.35
2023-11-15T17:51:50.278Z,8.33
2023-11-15T17:54:19.947Z,8.25
2023-11-15T17:56:47.293Z,8.17
2023-11-15T17:59:15.227Z,8.11
2023-11-15T18:01:42.367Z,8.06
2023-11-15T18:04:11.016Z,8.00
2023-11-15T18:06:38.643Z,7.96
2023-11-15T18:09:08.763Z,7.88
2023-11-15T18:11:36.485Z,7.83
2023-11-15T18:14:03.665Z,7.62
2023-11-15T18:16:31.899Z,7.50
2023-11-15T18:19:06.306Z,7.44
2023-11-15T18:21:34.235Z,7.39
2023-11-15T18:24:02.990Z,7.39
2023-11-15T18:26:34.087Z,7.32
2023-11-15T18:29:02.270Z,7.31
2023-11-15T18:31:30.052Z,7.28
2023-11-15T18:33:59.634Z,7.26
2023-11-15T18:36:27.297Z,7.22
2023-11-15T18:38:55.120Z,7.18
2023-11-15T18:41:22.597Z,7.13
2023-11-15T18:43:50.547Z,7.10
2023-11-15T18:46:18.043Z,7.12
2023-11-15T18:48:45.548Z,7.15
2023-11-15T18:51:13.443Z,7.20
2023-11-15T18:53:40.998Z,7.24
2023-11-15T18:56:08.958Z,7.26
2023-11-15T18:58:37.409Z,7.29
2023-11-15T19:01:05.138Z,7.34
2023-11-15T19:03:32.366Z,7.44
2023-11-15T19:06:00.008Z,7.44
2023-11-15T19:08:27.180Z,7.60
2023-11-15T19:10:56.321Z,7.69
2023-11-15T19:13:26.453Z,7.78
2023-11-15T19:15:54.891Z,7.84
2023-11-15T19:18:22.404Z,7.84
2023-11-15T19:20:50.317Z,7.82
2023-11-15T19:23:19.020Z,7.85
2023-11-15T19:25:47.149Z,7.85
2023-11-15T19:28:17.157Z,7.72
2023-11-15T19:30:45.857Z,7.67
2023-11-15T19:33:14.088Z,7.61
2023-11-15T19:35:42.058Z,7.52
2023-11-15T19:38:09.209Z,7.48
2023-11-15T19:40:36.612Z,7.45
2023-11-15T19:43:03.933Z,7.33
2023-11-15T19:45:32.604Z,7.20
2023-11-15T19:48:00.368Z,7.06
2023-11-15T19:50:27.890Z,6.95
2023-11-15T19:52:55.823Z,6.85
2023-11-15T19:55:23.603Z,6.78
2023-11-15T19:57:51.328Z,6.77
2023-11-15T20:00:19.179Z,6.71
2023-11-15T20:02:48.437Z,6.64
2023-11-15T20:05:16.761Z,6.53
2023-11-15T20:07:44.598Z,6.49
2023-11-15T20:10:11.876Z,6.49
2023-11-15T20:12:41.757Z,6.51
2023-11-15T20:15:11.910Z,6.50
2023-11-15T20:17:39.603Z,6.42
2023-11-15T20:20:08.738Z,6.39
2023-11-15T20:22:45.362Z,6.36
2023-11-15T20:25:20.077Z,6.33
2023-11-15T20:27:47.651Z,6.33
2023-11-15T20:30:16.476Z,6.29
2023-11-15T20:32:44.432Z,6.25
2023-11-15T20:35:12.263Z,6.22
2023-11-15T20:37:39.855Z,6.15
2023-11-15T20:40:09.730Z,6.09
2023-11-15T20:42:36.932Z,6.07
2023-11-15T20:45:04.626Z,6.01
2023-11-15T20:47:33.727Z,5.96
2023-11-15T20:50:01.031Z,5.96
2023-11-15T20:52:28.221Z,5.96
2023-11-15T20:54:55.559Z,5.94
2023-11-15T20:57:24.330Z,5.93
2023-11-15T20:59:53.713Z,5.99
2023-11-15T21:02:20.952Z,6.03
2023-11-15T21:04:48.194Z,6.09
2023-11-15T21:07:17.063Z,6.12
2023-11-15T21:09:44.305Z,6.16
2023-11-15T21:12:12.172Z,6.18
2023-11-15T21:14:40.259Z,6.19
2023-11-15T21:17:07.372Z,6.23
2023-11-15T21:19:34.729Z,6.19
2023-11-15T21:22:01.864Z,6.16
2023-11-15T21:24:31.835Z,6.15
2023-11-15T21:26:59.628Z,6.14
2023-11-15T21:29:27.237Z,6.15
2023-11-15T21:31:57.222Z,6.15
2023-11-15T21:34:24.526Z,6.14
2023-11-15T21:36:51.877Z,6.09
2023-11-15T21:39:19.702Z,6.10
2023-11-15T21:41:48.215Z,6.13
2023-11-15T21:44:18.206Z,6.11
2023-11-15T21:46:45.461Z,6.07
2023-11-15T21:49:12.929Z,6.05
2023-11-15T21:51:40.916Z,6.01
2023-11-15T21:54:08.820Z,5.96
2023-11-15T21:56:35.925Z,5.94
2023-11-15T21:59:03.464Z,5.91
2023-11-15T22:01:31.584Z,5.93
2023-11-15T22:03:58.942Z,5.90
2023-11-15T22:06:27.883Z,5.87
2023-11-15T22:08:56.130Z,5.84
2023-11-15T22:11:23.772Z,5.82
2023-11-15T22:13:50.756Z,5.77
2023-11-15T22:16:18.360Z,5.72
2023-11-15T22:18:46.396Z,5.68
2023-11-15T22:21:13.597Z,5.70
2023-11-15T22:23:41.499Z,5.69
2023-11-15T22:26:09.126Z,5.71
2023-11-15T22:28:36.512Z,5.75
2023-11-15T22:31:04.698Z,5.74
2023-11-15T22:33:31.799Z,5.75
2023-11-15T22:36:00.067Z,5.75
2023-11-15T22:38:27.320Z,5.74
2023-11-15T22:40:54.878Z,5.71
2023-11-15T22:43:22.753Z,5.69
2023-11-15T22:45:49.889Z,5.68
2023-11-15T22:48:17.458Z,5.60
2023-11-15T22:50:45.140Z,5.60
2023-11-15T22:53:12.679Z,5.56
2023-11-15T22:55:39.854Z,5.51
2023-11-15T22:58:06.863Z,5.50
2023-11-15T23:00:34.766Z,5.47
2023-11-15T23:03:12.607Z,5.46
2023-11-15T23:05:42.333Z,5.50
2023-11-15T23:08:12.272Z,5.51
2023-11-15T23:10:44.087Z,5.50
2023-11-15T23:13:11.567Z,5.49
2023-11-15T23:15:39.682Z,5.49
2023-11-15T23:18:06.978Z,5.47
2023-11-15T23:20:39.782Z,5.47
2023-11-15T23:23:08.798Z,5.49
2023-11-15T23:25:36.221Z,5.50
2023-11-15T23:28:05.716Z,5.47
2023-11-15T23:30:33.099Z,5.46
2023-11-15T23:33:00.333Z,5.45
2023-11-15T23:35:28.362Z,5.43
2023-11-15T23:37:59.223Z,5.41
2023-11-15T23:40:26.889Z,5.36
2023-11-15T23:42:55.620Z,5.35
2023-11-15T23:45:25.915Z,5.33
2023-11-15T23:47:54.109Z,5.29
2023-11-15T23:50:25.258Z,5.24
2023-11-15T23:52:53.764Z,5.22
2023-11-15T23:55:22.992Z,5.22
2023-11-15T23:57:50.854Z,5.22
